sensor_id;sensor_type;location;lat;lon;timestamp;pressure;altitude;pressure_sealevel;temperature;humidity
3254;BME280;1639;42.804;23.342;2022-12-31T00:01:25;74902.38;;;-148.52;100.00
3254;BME280;1639;42.804;23.342;2022-12-31T00:03:51;74908.59;;;-148.52;100.00
3254;BME280;1639;42.804;23.342;2022-12-31T00:08:48;74883.75;;;-148.52;100.00
3254;BME280;1639;42.804;23.342;2022-12-31T00:11:14;74877.56;;;-148.52;100.00
3254;BME280;1639;42.804;23.342;2022-12-31T00:13:40;74881.69;;;-148.52;100.00
3254;BME280;1639;42.804;23.342;2022-12-31T00:16:09;74885.81;;;-148.52;100.00
3254;BME280;1639;42.804;23.342;2022-12-31T00:18:35;74883.75;;;-148.52;100.00
3254;BME280;1639;42.804;23.342;2022-12-31T00:21:04;74883.75;;;-148.52;100.00
3254;BME280;1639;42.804;23.342;2022-12-31T00:23:30;74879.63;;;-148.52;100.00
3254;BME280;1639;42.804;23.342;2022-12-31T00:25:55;74892.03;;;-148.52;100.00
3254;BME280;1639;42.804;23.342;2022-12-31T00:28:21;74900.31;;;-148.52;100.00
3254;BME280;1639;42.804;23.342;2022-12-31T00:30:46;74931.34;;;-148.52;100.00
3254;BME280;1639;42.804;23.342;2022-12-31T00:33:11;74918.94;;;-148.52;100.00
3254;BME280;1639;42.804;23.342;2022-12-31T00:35:37;74925.16;;;-148.52;100.00
3254;BME280;1639;42.804;23.342;2022-12-31T00:38:02;74904.44;;;-148.52;100.00
3254;BME280;1639;42.804;23.342;2022-12-31T00:40:28;74910.66;;;-148.52;100.00
3254;BME280;1639;42.804;23.342;2022-12-31T00:42:53;74912.72;;;-148.52;100.00
3254;BME280;1639;42.804;23.342;2022-12-31T00:45:19;74925.16;;;-148.52;100.00
3254;BME280;1639;42.804;23.342;2022-12-31T00:47:44;74916.88;;;-148.52;100.00
3254;BME280;1639;42.804;23.342;2022-12-31T00:50:09;74898.25;;;-148.52;100.00
3254;BME280;1639;42.804;23.342;2022-12-31T00:52:35;74896.19;;;-148.52;100.00
3254;BME280;1639;42.804;23.342;2022-12-31T00:55:01;74900.31;;;-148.52;100.00
3254;BME280;1639;42.804;23.342;2022-12-31T00:57:26;74896.19;;;-148.52;100.00
3254;BME280;1639;42.804;23.342;2022-12-31T00:59:51;74898.25;;;-148.52;100.00
3254;BME280;1639;42.804;23.342;2022-12-31T01:02:17;74875.47;;;-148.52;100.00
3254;BME280;1639;42.804;23.342;2022-12-31T01:04:42;74871.34;;;-148.52;100.00
3254;BME280;1639;42.804;23.342;2022-12-31T01:07:08;74892.03;;;-148.52;100.00
3254;BME280;1639;42.804;23.342;2022-12-31T01:09:34;74900.31;;;-148.52;100.00
3254;BME280;1639;42.804;23.342;2022-12-31T01:12:00;74894.09;;;-148.52;100.00
3254;BME280;1639;42.804;23.342;2022-12-31T01:14:25;74892.03;;;-148.52;100.00
3254;BME280;1639;42.804;23.342;2022-12-31T01:16:52;74885.81;;;-148.52;100.00
3254;BME280;1639;42.804;23.342;2022-12-31T01:19:20;74873.41;;;-148.52;100.00
3254;BME280;1639;42.804;23.342;2022-12-31T01:21:48;74881.69;;;-148.52;100.00
3254;BME280;1639;42.804;23.342;2022-12-31T01:24:14;74877.56;;;-148.52;100.00
3254;BME280;1639;42.804;23.342;2022-12-31T01:26:40;74885.81;;;-148.52;100.00
3254;BME280;1639;42.804;23.342;2022-12-31T01:29:06;74910.66;;;-148.52;100.00
3254;BME280;1639;42.804;23.342;2022-12-31T01:31:33;74900.31;;;-148.52;100.00
3254;BME280;1639;42.804;23.342;2022-12-31T01:33:59;74904.44;;;-148.52;100.00
3254;BME280;1639;42.804;23.342;2022-12-31T01:36:29;74906.53;;;-148.52;100.00
3254;BME280;1639;42.804;23.342;2022-12-31T01:38:57;74892.03;;;-148.52;100.00
3254;BME280;1639;42.804;23.342;2022-12-31T01:41:25;74885.81;;;-148.52;100.00
3254;BME280;1639;42.804;23.342;2022-12-31T01:43:54;74887.91;;;-148.52;100.00
3254;BME280;1639;42.804;23.342;2022-12-31T01:49:25;74887.91;;;-148.52;100.00
3254;BME280;1639;42.804;23.342;2022-12-31T01:52:01;74910.66;;;-148.52;100.00
3254;BME280;1639;42.804;23.342;2022-12-31T01:54:33;74906.53;;;-148.52;100.00
3254;BME280;1639;42.804;23.342;2022-12-31T01:57:00;74914.78;;;-148.52;100.00
3254;BME280;1639;42.804;23.342;2022-12-31T01:59:27;74925.16;;;-148.52;100.00
3254;BME280;1639;42.804;23.342;2022-12-31T02:01:53;74933.41;;;-148.52;100.00
3254;BME280;1639;42.804;23.342;2022-12-31T02:04:21;74912.72;;;-148.52;100.00
3254;BME280;1639;42.804;23.342;2022-12-31T02:06:52;74916.88;;;-148.52;100.00
3254;BME280;1639;42.804;23.342;2022-12-31T02:09:19;74933.41;;;-148.52;100.00
3254;BME280;1639;42.804;23.342;2022-12-31T02:11:44;74921.00;;;-148.52;100.00
3254;BME280;1639;42.804;23.342;2022-12-31T02:14:13;74927.22;;;-148.52;100.00
3254;BME280;1639;42.804;23.342;2022-12-31T02:30:30;74958.25;;;-148.52;100.00
3254;BME280;1639;42.804;23.342;2022-12-31T02:38:09;74945.84;;;-148.52;100.00
3254;BME280;1639;42.804;23.342;2022-12-31T02:40:36;74956.19;;;-148.52;100.00
3254;BME280;1639;42.804;23.342;2022-12-31T02:43:02;74937.56;;;-148.52;100.00
3254;BME280;1639;42.804;23.342;2022-12-31T02:45:36;74958.25;;;-148.52;100.00
3254;BME280;1639;42.804;23.342;2022-12-31T02:51:08;74939.63;;;-148.52;100.00
3254;BME280;1639;42.804;23.342;2022-12-31T02:53:50;74923.06;;;-148.52;100.00
3254;BME280;1639;42.804;23.342;2022-12-31T02:56:32;74904.44;;;-148.52;100.00
3254;BME280;1639;42.804;23.342;2022-12-31T02:59:11;74931.34;;;-148.52;100.00
3254;BME280;1639;42.804;23.342;2022-12-31T03:02:04;74927.22;;;-148.52;100.00
3254;BME280;1639;42.804;23.342;2022-12-31T03:04:45;74921.00;;;-148.52;100.00
3254;BME280;1639;42.804;23.342;2022-12-31T03:07:15;74896.19;;;-148.52;100.00
3254;BME280;1639;42.804;23.342;2022-12-31T03:09:42;74896.19;;;-148.52;100.00
3254;BME280;1639;42.804;23.342;2022-12-31T03:12:10;74896.19;;;-148.52;100.00
3254;BME280;1639;42.804;23.342;2022-12-31T03:14:54;74885.81;;;-148.52;100.00
3254;BME280;1639;42.804;23.342;2022-12-31T03:17:20;74904.44;;;-148.52;100.00
3254;BME280;1639;42.804;23.342;2022-12-31T03:19:45;74929.28;;;-148.52;100.00
3254;BME280;1639;42.804;23.342;2022-12-31T03:22:29;74923.06;;;-148.52;100.00
3254;BME280;1639;42.804;23.342;2022-12-31T03:25:10;74923.06;;;-148.52;100.00
3254;BME280;1639;42.804;23.342;2022-12-31T03:27:55;74931.34;;;-148.52;100.00
3254;BME280;1639;42.804;23.342;2022-12-31T03:30:21;74945.84;;;-148.52;100.00
3254;BME280;1639;42.804;23.342;2022-12-31T03:32:48;74970.66;;;-148.52;100.00
3254;BME280;1639;42.804;23.342;2022-12-31T03:35:14;74970.66;;;-148.52;100.00
3254;BME280;1639;42.804;23.342;2022-12-31T03:37:41;74974.81;;;-148.52;100.00
3254;BME280;1639;42.804;23.342;2022-12-31T03:40:08;74985.16;;;-148.52;100.00
3254;BME280;1639;42.804;23.342;2022-12-31T03:42:34;74999.63;;;-148.52;100.00
3254;BME280;1639;42.804;23.342;2022-12-31T03:45:00;75009.97;;;-148.52;100.00
3254;BME280;1639;42.804;23.342;2022-12-31T03:47:25;75016.19;;;-148.52;100.00
3254;BME280;1639;42.804;23.342;2022-12-31T03:49:51;75009.97;;;-148.52;100.00
3254;BME280;1639;42.804;23.342;2022-12-31T03:52:16;75016.19;;;-148.52;100.00
3254;BME280;1639;42.804;23.342;2022-12-31T03:54:42;75016.19;;;-148.52;100.00
3254;BME280;1639;42.804;23.342;2022-12-31T03:57:07;75024.47;;;-148.52;100.00
3254;BME280;1639;42.804;23.342;2022-12-31T03:59:32;75038.94;;;-148.52;100.00
3254;BME280;1639;42.804;23.342;2022-12-31T04:01:58;75043.09;;;-148.52;100.00
3254;BME280;1639;42.804;23.342;2022-12-31T04:04:23;75053.44;;;-148.52;100.00
3254;BME280;1639;42.804;23.342;2022-12-31T04:06:49;75063.78;;;-148.52;100.00
3254;BME280;1639;42.804;23.342;2022-12-31T04:09:14;75082.41;;;-148.52;100.00
3254;BME280;1639;42.804;23.342;2022-12-31T04:11:40;75103.09;;;-148.52;100.00
3254;BME280;1639;42.804;23.342;2022-12-31T04:14:05;75107.22;;;-148.52;100.00
3254;BME280;1639;42.804;23.342;2022-12-31T04:16:30;75119.66;;;-148.52;100.00
3254;BME280;1639;42.804;23.342;2022-12-31T04:18:57;75105.16;;;-148.52;100.00
3254;BME280;1639;42.804;23.342;2022-12-31T04:21:22;75103.09;;;-148.52;100.00
3254;BME280;1639;42.804;23.342;2022-12-31T04:23:48;75146.56;;;-148.52;100.00
3254;BME280;1639;42.804;23.342;2022-12-31T04:26:13;75152.75;;;-148.52;100.00
3254;BME280;1639;42.804;23.342;2022-12-31T04:28:39;75146.56;;;-148.52;100.00
3254;BME280;1639;42.804;23.342;2022-12-31T04:31:04;75136.22;;;-148.52;100.00
3254;BME280;1639;42.804;23.342;2022-12-31T04:33:30;75171.38;;;-148.52;100.00
3254;BME280;1639;42.804;23.342;2022-12-31T04:36:06;75161.03;;;-148.52;100.00
3254;BME280;1639;42.804;23.342;2022-12-31T04:38:32;75154.81;;;-148.52;100.00
3254;BME280;1639;42.804;23.342;2022-12-31T04:40:58;75161.03;;;-148.52;100.00
3254;BME280;1639;42.804;23.342;2022-12-31T04:43:46;75169.31;;;-148.52;100.00
3254;BME280;1639;42.804;23.342;2022-12-31T04:46:13;75185.88;;;-148.52;100.00
3254;BME280;1639;42.804;23.342;2022-12-31T04:48:38;75190.00;;;-148.52;100.00
3254;BME280;1639;42.804;23.342;2022-12-31T04:51:04;75179.66;;;-148.52;100.00
3254;BME280;1639;42.804;23.342;2022-12-31T04:53:30;75196.22;;;-148.52;100.00
3254;BME280;1639;42.804;23.342;2022-12-31T04:55:55;75183.81;;;-148.52;100.00
3254;BME280;1639;42.804;23.342;2022-12-31T04:58:21;75194.16;;;-148.52;100.00
3254;BME280;1639;42.804;23.342;2022-12-31T05:00:47;75181.72;;;-148.52;100.00
3254;BME280;1639;42.804;23.342;2022-12-31T05:03:17;75181.72;;;-148.52;100.00
3254;BME280;1639;42.804;23.342;2022-12-31T05:05:43;75185.88;;;-148.52;100.00
3254;BME280;1639;42.804;23.342;2022-12-31T05:08:09;75206.56;;;-148.52;100.00
3254;BME280;1639;42.804;23.342;2022-12-31T05:10:35;75210.69;;;-148.52;100.00
3254;BME280;1639;42.804;23.342;2022-12-31T05:13:01;75204.50;;;-148.52;100.00
3254;BME280;1639;42.804;23.342;2022-12-31T05:15:27;75216.91;;;-148.52;100.00
3254;BME280;1639;42.804;23.342;2022-12-31T05:17:52;75243.81;;;-148.52;100.00
3254;BME280;1639;42.804;23.342;2022-12-31T05:20:17;75264.50;;;-148.52;100.00
3254;BME280;1639;42.804;23.342;2022-12-31T05:22:43;75274.84;;;-148.52;100.00
3254;BME280;1639;42.804;23.342;2022-12-31T05:25:08;75293.47;;;-148.52;100.00
3254;BME280;1639;42.804;23.342;2022-12-31T05:27:34;75299.69;;;-148.52;100.00
3254;BME280;1639;42.804;23.342;2022-12-31T05:30:03;75291.41;;;-148.52;100.00
3254;BME280;1639;42.804;23.342;2022-12-31T05:32:28;75297.63;;;-148.52;100.00
3254;BME280;1639;42.804;23.342;2022-12-31T05:34:54;75299.69;;;-148.52;100.00
3254;BME280;1639;42.804;23.342;2022-12-31T05:37:19;75326.59;;;-148.52;100.00
3254;BME280;1639;42.804;23.342;2022-12-31T05:39:44;75322.44;;;-148.52;100.00
3254;BME280;1639;42.804;23.342;2022-12-31T05:42:10;75320.38;;;-148.52;100.00
3254;BME280;1639;42.804;23.342;2022-12-31T05:44:35;75316.25;;;-148.52;100.00
3254;BME280;1639;42.804;23.342;2022-12-31T05:47:00;75322.44;;;-148.52;100.00
3254;BME280;1639;42.804;23.342;2022-12-31T05:49:26;75305.91;;;-148.52;100.00
3254;BME280;1639;42.804;23.342;2022-12-31T05:51:51;75301.75;;;-148.52;100.00
3254;BME280;1639;42.804;23.342;2022-12-31T05:54:17;75301.75;;;-148.52;100.00
3254;BME280;1639;42.804;23.342;2022-12-31T05:56:42;75293.47;;;-148.52;100.00
3254;BME280;1639;42.804;23.342;2022-12-31T05:59:07;75307.97;;;-148.52;100.00
3254;BME280;1639;42.804;23.342;2022-12-31T06:01:33;75305.91;;;-148.52;100.00
3254;BME280;1639;42.804;23.342;2022-12-31T06:03:59;75314.16;;;-148.52;100.00
3254;BME280;1639;42.804;23.342;2022-12-31T06:06:24;75297.63;;;-148.52;100.00
3254;BME280;1639;42.804;23.342;2022-12-31T06:08:50;75316.25;;;-148.52;100.00
3254;BME280;1639;42.804;23.342;2022-12-31T06:11:16;75297.63;;;-148.52;100.00
3254;BME280;1639;42.804;23.342;2022-12-31T06:13:41;75305.91;;;-148.52;100.00
3254;BME280;1639;42.804;23.342;2022-12-31T06:16:09;75310.03;;;-148.52;100.00
3254;BME280;1639;42.804;23.342;2022-12-31T06:18:34;75318.31;;;-148.52;100.00
3254;BME280;1639;42.804;23.342;2022-12-31T06:21:00;75314.16;;;-148.52;100.00
3254;BME280;1639;42.804;23.342;2022-12-31T06:23:25;75322.44;;;-148.52;100.00
3254;BME280;1639;42.804;23.342;2022-12-31T06:25:51;75326.59;;;-148.52;100.00
3254;BME280;1639;42.804;23.342;2022-12-31T06:28:16;75347.28;;;-148.52;100.00
3254;BME280;1639;42.804;23.342;2022-12-31T06:30:41;75345.22;;;-148.52;100.00
3254;BME280;1639;42.804;23.342;2022-12-31T06:33:07;75355.56;;;-148.52;100.00
3254;BME280;1639;42.804;23.342;2022-12-31T06:35:32;75361.78;;;-148.52;100.00
3254;BME280;1639;42.804;23.342;2022-12-31T06:37:58;75355.56;;;-148.52;100.00
3254;BME280;1639;42.804;23.342;2022-12-31T06:40:23;75355.56;;;-148.52;100.00
3254;BME280;1639;42.804;23.342;2022-12-31T06:42:48;75343.16;;;-148.52;100.00
3254;BME280;1639;42.804;23.342;2022-12-31T06:45:14;75357.63;;;-148.52;100.00
3254;BME280;1639;42.804;23.342;2022-12-31T06:47:39;75347.28;;;-148.52;100.00
3254;BME280;1639;42.804;23.342;2022-12-31T06:50:05;75343.16;;;-148.52;100.00
3254;BME280;1639;42.804;23.342;2022-12-31T06:52:31;75330.72;;;-148.52;100.00
3254;BME280;1639;42.804;23.342;2022-12-31T06:54:57;75301.75;;;-148.52;100.00
3254;BME280;1639;42.804;23.342;2022-12-31T06:57:23;75289.34;;;-148.52;100.00
3254;BME280;1639;42.804;23.342;2022-12-31T06:59:49;75285.19;;;-148.52;100.00
3254;BME280;1639;42.804;23.342;2022-12-31T07:16:31;75295.53;;;-148.52;100.00
3254;BME280;1639;42.804;23.342;2022-12-31T07:21:43;75279.00;;;-148.52;100.00
3254;BME280;1639;42.804;23.342;2022-12-31T07:24:09;75276.91;;;-148.52;100.00
3254;BME280;1639;42.804;23.342;2022-12-31T07:27:01;75287.28;;;-148.52;100.00
3254;BME280;1639;42.804;23.342;2022-12-31T07:35:14;75264.50;;;-148.52;100.00
3254;BME280;1639;42.804;23.342;2022-12-31T07:40:31;75198.28;;;-148.52;100.00
3254;BME280;1639;42.804;23.342;2022-12-31T07:43:35;75173.47;;;-148.52;100.00
3254;BME280;1639;42.804;23.342;2022-12-31T07:48:32;75121.72;;;-148.52;100.00
3254;BME280;1639;42.804;23.342;2022-12-31T07:50:58;75063.78;;;-148.52;100.00
3254;BME280;1639;42.804;23.342;2022-12-31T07:53:24;74997.56;;;-148.52;100.00
3254;BME280;1639;42.804;23.342;2022-12-31T07:55:56;74964.47;;;-148.52;100.00
3254;BME280;1639;42.804;23.342;2022-12-31T08:04:18;74900.31;;;-148.52;100.00
3254;BME280;1639;42.804;23.342;2022-12-31T08:07:07;74904.44;;;-148.52;100.00
3254;BME280;1639;42.804;23.342;2022-12-31T08:12:12;74879.63;;;-148.52;100.00
3254;BME280;1639;42.804;23.342;2022-12-31T08:14:43;74873.41;;;-148.52;100.00
3254;BME280;1639;42.804;23.342;2022-12-31T08:17:12;74852.72;;;-148.52;100.00
3254;BME280;1639;42.804;23.342;2022-12-31T08:19:38;74856.84;;;-148.52;100.00
3254;BME280;1639;42.804;23.342;2022-12-31T08:35:41;74856.84;;;-148.52;100.00
3254;BME280;1639;42.804;23.342;2022-12-31T08:46:08;74796.84;;;-148.52;100.00
3254;BME280;1639;42.804;23.342;2022-12-31T08:48:44;74774.09;;;-148.52;100.00
3254;BME280;1639;42.804;23.342;2022-12-31T08:51:21;74755.47;;;-148.52;100.00
3254;BME280;1639;42.804;23.342;2022-12-31T08:53:48;74730.63;;;-148.52;100.00
3254;BME280;1639;42.804;23.342;2022-12-31T09:07:30;74678.91;;;-148.52;100.00
3254;BME280;1639;42.804;23.342;2022-12-31T09:10:17;74656.16;;;-148.52;100.00
3254;BME280;1639;42.804;23.342;2022-12-31T09:15:35;74643.75;;;-148.52;100.00
3254;BME280;1639;42.804;23.342;2022-12-31T09:18:04;74641.66;;;-148.52;100.00
3254;BME280;1639;42.804;23.342;2022-12-31T09:20:33;74633.41;;;-148.52;100.00
3254;BME280;1639;42.804;23.342;2022-12-31T09:23:00;74633.41;;;-148.52;100.00
3254;BME280;1639;42.804;23.342;2022-12-31T09:25:27;74635.47;;;-148.52;100.00
3254;BME280;1639;42.804;23.342;2022-12-31T09:27:58;74618.91;;;-148.52;100.00
3254;BME280;1639;42.804;23.342;2022-12-31T09:30:27;74604.44;;;-148.52;100.00
3254;BME280;1639;42.804;23.342;2022-12-31T09:33:06;74602.34;;;-148.52;100.00
3254;BME280;1639;42.804;23.342;2022-12-31T09:35:52;74589.94;;;-148.52;100.00
3254;BME280;1639;42.804;23.342;2022-12-31T09:38:36;74575.47;;;-148.52;100.00
3254;BME280;1639;42.804;23.342;2022-12-31T09:41:15;74554.78;;;-148.52;100.00
3254;BME280;1639;42.804;23.342;2022-12-31T09:56:07;74521.66;;;-148.52;100.00
3254;BME280;1639;42.804;23.342;2022-12-31T10:10:33;74461.66;;;-148.52;100.00
3254;BME280;1639;42.804;23.342;2022-12-31T10:13:39;74445.13;;;-148.52;100.00
3254;BME280;1639;42.804;23.342;2022-12-31T10:24:22;74391.31;;;-148.52;100.00
3254;BME280;1639;42.804;23.342;2022-12-31T10:30:15;74366.50;;;-148.52;100.00
3254;BME280;1639;42.804;23.342;2022-12-31T10:33:16;74345.81;;;-148.52;100.00
3254;BME280;1639;42.804;23.342;2022-12-31T10:35:50;74349.94;;;-148.52;100.00
3254;BME280;1639;42.804;23.342;2022-12-31T11:00:43;74269.25;;;-148.52;100.00
3254;BME280;1639;42.804;23.342;2022-12-31T11:20:14;74184.44;;;-148.52;100.00
3254;BME280;1639;42.804;23.342;2022-12-31T11:31:36;74130.66;;;-148.52;100.00
3254;BME280;1639;42.804;23.342;2022-12-31T11:48:26;74068.59;;;-148.52;100.00
3254;BME280;1639;42.804;23.342;2022-12-31T11:56:46;74033.41;;;-148.52;100.00
3254;BME280;1639;42.804;23.342;2022-12-31T11:59:15;74027.22;;;-148.52;100.00
3254;BME280;1639;42.804;23.342;2022-12-31T12:01:59;74023.06;;;-148.52;100.00
3254;BME280;1639;42.804;23.342;2022-12-31T12:04:27;74014.78;;;-148.52;100.00
3254;BME280;1639;42.804;23.342;2022-12-31T12:06:52;74008.59;;;-148.52;100.00
3254;BME280;1639;42.804;23.342;2022-12-31T12:09:25;74002.38;;;-148.52;100.00
3254;BME280;1639;42.804;23.342;2022-12-31T12:12:03;73992.03;;;-148.52;100.00
3254;BME280;1639;42.804;23.342;2022-12-31T12:14:36;73994.09;;;-148.52;100.00
3254;BME280;1639;42.804;23.342;2022-12-31T12:17:06;73977.56;;;-148.52;100.00
3254;BME280;1639;42.804;23.342;2022-12-31T12:19:33;73969.28;;;-148.52;100.00
3254;BME280;1639;42.804;23.342;2022-12-31T12:22:12;73958.94;;;-148.52;100.00
3254;BME280;1639;42.804;23.342;2022-12-31T12:24:38;73954.81;;;-148.52;100.00
3254;BME280;1639;42.804;23.342;2022-12-31T12:27:04;73950.66;;;-148.52;100.00
3254;BME280;1639;42.804;23.342;2022-12-31T12:29:33;73936.19;;;-148.52;100.00
3254;BME280;1639;42.804;23.342;2022-12-31T12:32:05;73938.25;;;-148.52;100.00
3254;BME280;1639;42.804;23.342;2022-12-31T12:34:37;73932.03;;;-148.52;100.00
3254;BME280;1639;42.804;23.342;2022-12-31T12:37:03;73919.63;;;-148.52;100.00
3254;BME280;1639;42.804;23.342;2022-12-31T12:39:31;73919.63;;;-148.52;100.00
3254;BME280;1639;42.804;23.342;2022-12-31T12:42:09;73911.34;;;-148.52;100.00
3254;BME280;1639;42.804;23.342;2022-12-31T12:44:37;73903.09;;;-148.52;100.00
3254;BME280;1639;42.804;23.342;2022-12-31T12:47:06;73898.94;;;-148.52;100.00
3254;BME280;1639;42.804;23.342;2022-12-31T12:49:41;73905.16;;;-148.52;100.00
3254;BME280;1639;42.804;23.342;2022-12-31T12:57:28;73882.41;;;-148.52;100.00
3254;BME280;1639;42.804;23.342;2022-12-31T13:22:03;73845.16;;;-148.52;100.00
3254;BME280;1639;42.804;23.342;2022-12-31T13:27:38;73845.16;;;-148.52;76.14
3254;BME280;1639;42.804;23.342;2022-12-31T13:30:23;73851.38;;;-148.52;76.31
3254;BME280;1639;42.804;23.342;2022-12-31T13:32:56;73845.16;;;-148.52;75.67
3254;BME280;1639;42.804;23.342;2022-12-31T13:35:40;73832.75;;;-148.52;75.41
3254;BME280;1639;42.804;23.342;2022-12-31T13:38:21;73841.03;;;-148.52;75.04
3254;BME280;1639;42.804;23.342;2022-12-31T13:40:57;73828.59;;;-148.52;73.96
3254;BME280;1639;42.804;23.342;2022-12-31T13:46:24;73832.75;;;-148.52;71.66
3254;BME280;1639;42.804;23.342;2022-12-31T13:48:56;73841.03;;;-148.52;71.22
3254;BME280;1639;42.804;23.342;2022-12-31T13:54:04;73828.59;;;-148.52;70.83
3254;BME280;1639;42.804;23.342;2022-12-31T13:56:36;73828.59;;;-148.52;70.71
3254;BME280;1639;42.804;23.342;2022-12-31T13:59:16;73832.75;;;-148.52;70.88
3254;BME280;1639;42.804;23.342;2022-12-31T14:04:56;73836.88;;;-148.52;69.90
3254;BME280;1639;42.804;23.342;2022-12-31T14:07:35;73845.16;;;-148.52;69.99
3254;BME280;1639;42.804;23.342;2022-12-31T14:10:02;73845.16;;;-148.52;70.04
3254;BME280;1639;42.804;23.342;2022-12-31T14:12:58;73847.22;;;-148.52;69.92
3254;BME280;1639;42.804;23.342;2022-12-31T14:15:35;73843.09;;;-148.52;70.64
3254;BME280;1639;42.804;23.342;2022-12-31T14:20:47;73853.44;;;-148.52;71.63
3254;BME280;1639;42.804;23.342;2022-12-31T14:23:49;73861.72;;;-148.52;72.22
3254;BME280;1639;42.804;23.342;2022-12-31T14:28:59;73886.53;;;-148.52;73.22
3254;BME280;1639;42.804;23.342;2022-12-31T14:37:08;73890.66;;;-148.52;72.82
3254;BME280;1639;42.804;23.342;2022-12-31T14:43:00;73927.91;;;-148.52;73.86
3254;BME280;1639;42.804;23.342;2022-12-31T14:48:28;73975.47;;;-148.52;75.49
3254;BME280;1639;42.804;23.342;2022-12-31T14:50:58;73992.03;;;-148.52;76.47
3254;BME280;1639;42.804;23.342;2022-12-31T14:53:27;74002.38;;;-148.52;76.50
3254;BME280;1639;42.804;23.342;2022-12-31T14:56:02;74008.59;;;-148.52;76.12
3254;BME280;1639;42.804;23.342;2022-12-31T14:58:35;74049.97;;;-148.52;77.76
3254;BME280;1639;42.804;23.342;2022-12-31T15:01:19;74081.00;;;-148.52;78.71
3254;BME280;1639;42.804;23.342;2022-12-31T15:03:47;74114.09;;;-148.52;80.58
3254;BME280;1639;42.804;23.342;2022-12-31T15:09:01;74145.13;;;-148.52;80.27
3254;BME280;1639;42.804;23.342;2022-12-31T15:22:39;74229.94;;;-148.52;82.49
3254;BME280;1639;42.804;23.342;2022-12-31T15:25:25;74244.44;;;-148.52;81.24
3254;BME280;1639;42.804;23.342;2022-12-31T15:27:52;74292.00;;;-148.52;83.79
3254;BME280;1639;42.804;23.342;2022-12-31T15:30:39;74302.34;;;-148.52;85.21
3254;BME280;1639;42.804;23.342;2022-12-31T15:33:51;74329.25;;;-148.52;85.65
3254;BME280;1639;42.804;23.342;2022-12-31T15:36:23;74366.50;;;-148.52;86.36
3254;BME280;1639;42.804;23.342;2022-12-31T15:38:49;74399.59;;;-148.52;88.35
3254;BME280;1639;42.804;23.342;2022-12-31T15:46:28;74412.00;;;-148.52;87.16
3254;BME280;1639;42.804;23.342;2022-12-31T15:49:04;74420.28;;;-148.52;86.63
3254;BME280;1639;42.804;23.342;2022-12-31T15:51:47;74436.84;;;-148.52;88.25
3254;BME280;1639;42.804;23.342;2022-12-31T15:54:33;74449.25;;;-148.52;90.18
3254;BME280;1639;42.804;23.342;2022-12-31T15:57:00;74476.16;;;-148.52;88.75
3254;BME280;1639;42.804;23.342;2022-12-31T15:59:26;74476.16;;;-148.52;89.28
3254;BME280;1639;42.804;23.342;2022-12-31T16:01:54;74490.63;;;-148.52;91.24
3254;BME280;1639;42.804;23.342;2022-12-31T16:04:22;74494.78;;;-148.52;92.06
3254;BME280;1639;42.804;23.342;2022-12-31T16:06:49;74484.44;;;-148.52;91.85
3254;BME280;1639;42.804;23.342;2022-12-31T16:11:46;74527.88;;;-148.52;92.00
3254;BME280;1639;42.804;23.342;2022-12-31T16:14:19;74552.69;;;-148.52;95.60
3254;BME280;1639;42.804;23.342;2022-12-31T16:16:58;74536.16;;;-148.52;94.10
3254;BME280;1639;42.804;23.342;2022-12-31T16:19:33;74542.34;;;-148.52;94.96
3254;BME280;1639;42.804;23.342;2022-12-31T16:22:26;74556.84;;;-148.52;98.75
3254;BME280;1639;42.804;23.342;2022-12-31T16:24:57;74554.78;;;-148.52;99.43
3254;BME280;1639;42.804;23.342;2022-12-31T16:27:24;74567.19;;;-148.52;97.02
3254;BME280;1639;42.804;23.342;2022-12-31T16:30:01;74569.25;;;-148.52;97.95
3254;BME280;1639;42.804;23.342;2022-12-31T16:32:34;74583.75;;;-148.52;98.61
3254;BME280;1639;42.804;23.342;2022-12-31T16:35:01;74608.56;;;-148.52;98.85
3254;BME280;1639;42.804;23.342;2022-12-31T16:37:26;74614.78;;;-148.52;100.00
3254;BME280;1639;42.804;23.342;2022-12-31T16:42:22;74631.31;;;-148.52;100.00
3254;BME280;1639;42.804;23.342;2022-12-31T16:44:49;74614.78;;;-148.52;100.00
3254;BME280;1639;42.804;23.342;2022-12-31T16:47:44;74635.47;;;-148.52;100.00
3254;BME280;1639;42.804;23.342;2022-12-31T16:50:13;74652.00;;;-148.52;100.00
3254;BME280;1639;42.804;23.342;2022-12-31T16:52:41;74647.88;;;-148.52;100.00
3254;BME280;1639;42.804;23.342;2022-12-31T16:55:12;74664.44;;;-148.52;100.00
3254;BME280;1639;42.804;23.342;2022-12-31T16:57:41;74666.50;;;-148.52;100.00
3254;BME280;1639;42.804;23.342;2022-12-31T17:00:14;74664.44;;;-148.52;100.00
3254;BME280;1639;42.804;23.342;2022-12-31T17:02:41;74660.28;;;-148.52;100.00
3254;BME280;1639;42.804;23.342;2022-12-31T17:05:20;74676.84;;;-148.52;100.00
3254;BME280;1639;42.804;23.342;2022-12-31T17:07:46;74664.44;;;-148.52;100.00
3254;BME280;1639;42.804;23.342;2022-12-31T17:10:19;74672.69;;;-148.52;100.00
3254;BME280;1639;42.804;23.342;2022-12-31T17:15:23;74678.91;;;-148.52;100.00
3254;BME280;1639;42.804;23.342;2022-12-31T17:17:54;74683.06;;;-148.52;100.00
3254;BME280;1639;42.804;23.342;2022-12-31T17:20:25;74697.53;;;-148.52;100.00
3254;BME280;1639;42.804;23.342;2022-12-31T17:22:57;74712.03;;;-148.52;100.00
3254;BME280;1639;42.804;23.342;2022-12-31T17:25:29;74714.09;;;-148.52;100.00
3254;BME280;1639;42.804;23.342;2022-12-31T17:28:01;74730.63;;;-148.52;100.00
3254;BME280;1639;42.804;23.342;2022-12-31T17:35:38;74780.31;;;-148.52;100.00
3254;BME280;1639;42.804;23.342;2022-12-31T17:40:50;74801.00;;;-148.52;100.00
3254;BME280;1639;42.804;23.342;2022-12-31T17:43:21;74825.81;;;-148.52;100.00
3254;BME280;1639;42.804;23.342;2022-12-31T17:45:49;74807.19;;;-148.52;100.00
3254;BME280;1639;42.804;23.342;2022-12-31T17:48:17;74825.81;;;-148.52;100.00
3254;BME280;1639;42.804;23.342;2022-12-31T17:50:50;74856.84;;;-148.52;100.00
3254;BME280;1639;42.804;23.342;2022-12-31T17:53:17;74854.78;;;-148.52;100.00